sensor_id;sensor_type;location;lat;lon;timestamp;P1;durP1;ratioP1;P2;durP2;ratioP2
71777;SDS011;59609;52.430;4.668;2022-09-12T00:00:27;10.45;;;8.05;;
71777;SDS011;59609;52.430;4.668;2022-09-12T00:02:55;14.43;;;8.63;;
71777;SDS011;59609;52.430;4.668;2022-09-12T00:05:21;13.75;;;9.07;;
71777;SDS011;59609;52.430;4.668;2022-09-12T00:07:46;15.32;;;9.98;;
71777;SDS011;59609;52.430;4.668;2022-09-12T00:10:12;13.38;;;9.63;;
71777;SDS011;59609;52.430;4.668;2022-09-12T00:12:38;14.68;;;9.88;;
71777;SDS011;59609;52.430;4.668;2022-09-12T00:15:04;14.13;;;10.02;;
71777;SDS011;59609;52.430;4.668;2022-09-12T00:17:31;16.80;;;11.15;;
71777;SDS011;59609;52.430;4.668;2022-09-12T00:19:58;17.98;;;10.82;;
71777;SDS011;59609;52.430;4.668;2022-09-12T00:22:24;16.55;;;10.75;;
71777;SDS011;59609;52.430;4.668;2022-09-12T00:24:49;18.02;;;11.40;;
71777;SDS011;59609;52.430;4.668;2022-09-12T00:27:15;19.70;;;11.13;;
71777;SDS011;59609;52.430;4.668;2022-09-12T00:29:40;18.75;;;11.45;;
71777;SDS011;59609;52.430;4.668;2022-09-12T00:32:06;17.98;;;12.27;;
71777;SDS011;59609;52.430;4.668;2022-09-12T00:34:31;20.10;;;12.20;;
71777;SDS011;59609;52.430;4.668;2022-09-12T00:36:57;19.13;;;12.63;;
71777;SDS011;59609;52.430;4.668;2022-09-12T00:39:22;21.45;;;13.40;;
71777;SDS011;59609;52.430;4.668;2022-09-12T00:41:47;19.50;;;12.88;;
71777;SDS011;59609;52.430;4.668;2022-09-12T00:46:56;20.02;;;14.20;;
71777;SDS011;59609;52.430;4.668;2022-09-12T00:49:42;19.95;;;13.05;;
71777;SDS011;59609;52.430;4.668;2022-09-12T00:57:34;20.15;;;14.38;;
71777;SDS011;59609;52.430;4.668;2022-09-12T01:00:22;21.52;;;14.15;;
71777;SDS011;59609;52.430;4.668;2022-09-12T01:02:50;24.02;;;15.93;;
71777;SDS011;59609;52.430;4.668;2022-09-12T01:05:21;20.50;;;13.80;;
71777;SDS011;59609;52.430;4.668;2022-09-12T01:07:48;25.60;;;15.48;;
71777;SDS011;59609;52.430;4.668;2022-09-12T01:10:15;25.90;;;15.50;;
71777;SDS011;59609;52.430;4.668;2022-09-12T01:12:42;22.42;;;15.07;;
71777;SDS011;59609;52.430;4.668;2022-09-12T01:15:08;24.52;;;15.07;;
71777;SDS011;59609;52.430;4.668;2022-09-12T01:17:41;23.38;;;15.38;;
71777;SDS011;59609;52.430;4.668;2022-09-12T01:34:27;25.27;;;15.90;;
71777;SDS011;59609;52.430;4.668;2022-09-12T01:42:09;24.23;;;15.02;;
71777;SDS011;59609;52.430;4.668;2022-09-12T01:44:50;25.50;;;15.48;;
71777;SDS011;59609;52.430;4.668;2022-09-12T01:47:41;26.58;;;15.80;;
71777;SDS011;59609;52.430;4.668;2022-09-12T01:50:24;27.73;;;17.10;;
71777;SDS011;59609;52.430;4.668;2022-09-12T01:53:37;26.05;;;15.05;;
71777;SDS011;59609;52.430;4.668;2022-09-12T01:55:57;25.60;;;15.50;;
71777;SDS011;59609;52.430;4.668;2022-09-12T01:58:33;24.35;;;15.82;;
71777;SDS011;59609;52.430;4.668;2022-09-12T02:08:50;28.58;;;16.13;;
71777;SDS011;59609;52.430;4.668;2022-09-12T02:11:18;24.83;;;15.98;;
71777;SDS011;59609;52.430;4.668;2022-09-12T02:14:01;26.73;;;16.02;;
71777;SDS011;59609;52.430;4.668;2022-09-12T02:16:41;24.98;;;16.10;;
71777;SDS011;59609;52.430;4.668;2022-09-12T02:19:12;23.33;;;14.48;;
71777;SDS011;59609;52.430;4.668;2022-09-12T02:21:44;23.75;;;15.02;;
71777;SDS011;59609;52.430;4.668;2022-09-12T02:24:13;26.88;;;15.57;;
71777;SDS011;59609;52.430;4.668;2022-09-12T02:26:41;25.90;;;15.10;;
71777;SDS011;59609;52.430;4.668;2022-09-12T02:29:12;24.83;;;15.27;;
71777;SDS011;59609;52.430;4.668;2022-09-12T02:34:20;25.55;;;15.70;;
71777;SDS011;59609;52.430;4.668;2022-09-12T02:39:54;26.20;;;15.75;;
71777;SDS011;59609;52.430;4.668;2022-09-12T02:42:21;24.25;;;14.90;;
71777;SDS011;59609;52.430;4.668;2022-09-12T02:44:47;25.23;;;15.40;;
71777;SDS011;59609;52.430;4.668;2022-09-12T02:47:32;27.45;;;16.80;;
71777;SDS011;59609;52.430;4.668;2022-09-12T02:50:00;35.05;;;19.50;;
71777;SDS011;59609;52.430;4.668;2022-09-12T02:52:29;30.13;;;20.05;;
71777;SDS011;59609;52.430;4.668;2022-09-12T02:54:55;27.05;;;18.17;;
71777;SDS011;59609;52.430;4.668;2022-09-12T02:57:22;27.80;;;17.60;;
71777;SDS011;59609;52.430;4.668;2022-09-12T02:59:47;29.38;;;17.92;;
71777;SDS011;59609;52.430;4.668;2022-09-12T03:05:02;26.98;;;16.88;;
71777;SDS011;59609;52.430;4.668;2022-09-12T03:15:45;26.92;;;15.82;;
71777;SDS011;59609;52.430;4.668;2022-09-12T03:21:07;27.63;;;16.85;;
71777;SDS011;59609;52.430;4.668;2022-09-12T03:27:16;29.63;;;16.90;;
71777;SDS011;59609;52.430;4.668;2022-09-12T03:29:20;27.50;;;16.65;;
71777;SDS011;59609;52.430;4.668;2022-09-12T03:31:52;30.73;;;18.33;;
71777;SDS011;59609;52.430;4.668;2022-09-12T03:34:20;29.52;;;16.00;;
71777;SDS011;59609;52.430;4.668;2022-09-12T03:36:47;28.80;;;16.90;;
71777;SDS011;59609;52.430;4.668;2022-09-12T03:39:13;27.95;;;16.25;;
71777;SDS011;59609;52.430;4.668;2022-09-12T03:41:39;28.95;;;16.70;;
71777;SDS011;59609;52.430;4.668;2022-09-12T03:44:04;28.13;;;17.38;;
71777;SDS011;59609;52.430;4.668;2022-09-12T03:46:30;28.65;;;15.95;;
71777;SDS011;59609;52.430;4.668;2022-09-12T03:48:55;28.05;;;16.60;;
71777;SDS011;59609;52.430;4.668;2022-09-12T03:51:21;30.08;;;18.00;;
71777;SDS011;59609;52.430;4.668;2022-09-12T03:53:46;29.67;;;17.30;;
71777;SDS011;59609;52.430;4.668;2022-09-12T03:56:12;33.33;;;19.02;;
71777;SDS011;59609;52.430;4.668;2022-09-12T03:58:38;30.95;;;18.33;;
71777;SDS011;59609;52.430;4.668;2022-09-12T04:01:08;30.83;;;18.17;;
71777;SDS011;59609;52.430;4.668;2022-09-12T04:03:38;32.70;;;18.30;;
71777;SDS011;59609;52.430;4.668;2022-09-12T04:06:08;29.95;;;18.33;;
71777;SDS011;59609;52.430;4.668;2022-09-12T04:08:34;28.88;;;16.17;;
71777;SDS011;59609;52.430;4.668;2022-09-12T04:11:01;28.20;;;17.08;;
71777;SDS011;59609;52.430;4.668;2022-09-12T04:13:30;32.78;;;18.20;;
71777;SDS011;59609;52.430;4.668;2022-09-12T04:15:56;33.05;;;18.20;;
71777;SDS011;59609;52.430;4.668;2022-09-12T04:18:23;32.65;;;19.90;;
71777;SDS011;59609;52.430;4.668;2022-09-12T04:20:48;32.97;;;19.02;;
71777;SDS011;59609;52.430;4.668;2022-09-12T04:23:13;33.97;;;20.00;;
71777;SDS011;59609;52.430;4.668;2022-09-12T04:25:39;32.17;;;18.75;;
71777;SDS011;59609;52.430;4.668;2022-09-12T04:28:04;33.80;;;19.58;;
71777;SDS011;59609;52.430;4.668;2022-09-12T04:30:29;31.13;;;18.02;;
71777;SDS011;59609;52.430;4.668;2022-09-12T04:32:55;33.58;;;19.30;;
71777;SDS011;59609;52.430;4.668;2022-09-12T04:35:20;33.08;;;18.90;;
71777;SDS011;59609;52.430;4.668;2022-09-12T04:37:45;37.22;;;20.40;;
71777;SDS011;59609;52.430;4.668;2022-09-12T04:40:11;36.05;;;19.90;;
71777;SDS011;59609;52.430;4.668;2022-09-12T04:42:36;33.20;;;19.02;;
71777;SDS011;59609;52.430;4.668;2022-09-12T04:45:02;33.85;;;18.48;;
71777;SDS011;59609;52.430;4.668;2022-09-12T04:47:27;35.13;;;20.58;;
71777;SDS011;59609;52.430;4.668;2022-09-12T04:49:53;32.22;;;19.23;;
71777;SDS011;59609;52.430;4.668;2022-09-12T04:52:18;30.13;;;17.70;;
71777;SDS011;59609;52.430;4.668;2022-09-12T04:54:43;34.60;;;18.85;;
71777;SDS011;59609;52.430;4.668;2022-09-12T04:57:09;31.60;;;17.90;;
71777;SDS011;59609;52.430;4.668;2022-09-12T04:59:34;33.10;;;18.30;;
71777;SDS011;59609;52.430;4.668;2022-09-12T05:01:59;29.45;;;17.00;;
71777;SDS011;59609;52.430;4.668;2022-09-12T05:04:25;30.25;;;17.35;;
71777;SDS011;59609;52.430;4.668;2022-09-12T05:06:50;30.48;;;17.90;;
71777;SDS011;59609;52.430;4.668;2022-09-12T05:09:15;30.85;;;17.40;;
71777;SDS011;59609;52.430;4.668;2022-09-12T05:11:42;30.80;;;18.40;;
71777;SDS011;59609;52.430;4.668;2022-09-12T05:14:09;30.67;;;17.95;;
71777;SDS011;59609;52.430;4.668;2022-09-12T05:16:35;32.88;;;17.23;;
71777;SDS011;59609;52.430;4.668;2022-09-12T05:19:00;31.48;;;17.73;;
71777;SDS011;59609;52.430;4.668;2022-09-12T05:21:26;29.63;;;17.55;;
71777;SDS011;59609;52.430;4.668;2022-09-12T05:23:52;31.25;;;17.58;;
71777;SDS011;59609;52.430;4.668;2022-09-12T05:26:19;27.77;;;16.38;;
71777;SDS011;59609;52.430;4.668;2022-09-12T05:28:45;33.67;;;17.35;;
71777;SDS011;59609;52.430;4.668;2022-09-12T05:31:16;32.78;;;17.92;;
71777;SDS011;59609;52.430;4.668;2022-09-12T05:33:46;30.23;;;16.55;;
71777;SDS011;59609;52.430;4.668;2022-09-12T05:36:17;30.17;;;17.27;;
71777;SDS011;59609;52.430;4.668;2022-09-12T05:38:48;29.85;;;16.60;;
71777;SDS011;59609;52.430;4.668;2022-09-12T05:41:15;30.70;;;16.90;;
71777;SDS011;59609;52.430;4.668;2022-09-12T05:43:43;31.48;;;17.48;;
71777;SDS011;59609;52.430;4.668;2022-09-12T05:46:16;29.40;;;16.45;;
71777;SDS011;59609;52.430;4.668;2022-09-12T05:48:44;29.70;;;17.02;;
71777;SDS011;59609;52.430;4.668;2022-09-12T05:51:11;32.33;;;17.38;;
71777;SDS011;59609;52.430;4.668;2022-09-12T05:53:45;30.58;;;16.25;;
71777;SDS011;59609;52.430;4.668;2022-09-12T05:56:20;31.30;;;17.27;;
71777;SDS011;59609;52.430;4.668;2022-09-12T05:58:53;35.47;;;17.05;;
71777;SDS011;59609;52.430;4.668;2022-09-12T06:01:23;34.67;;;16.92;;
71777;SDS011;59609;52.430;4.668;2022-09-12T06:03:51;30.92;;;16.85;;
71777;SDS011;59609;52.430;4.668;2022-09-12T06:06:18;31.65;;;16.98;;
71777;SDS011;59609;52.430;4.668;2022-09-12T06:08:46;33.35;;;16.92;;
71777;SDS011;59609;52.430;4.668;2022-09-12T06:11:14;31.27;;;16.50;;
71777;SDS011;59609;52.430;4.668;2022-09-12T06:13:41;33.22;;;17.38;;
71777;SDS011;59609;52.430;4.668;2022-09-12T06:16:08;30.95;;;17.13;;
71777;SDS011;59609;52.430;4.668;2022-09-12T06:18:35;33.58;;;17.33;;
71777;SDS011;59609;52.430;4.668;2022-09-12T06:21:02;30.45;;;16.27;;
71777;SDS011;59609;52.430;4.668;2022-09-12T06:23:32;30.42;;;16.95;;
71777;SDS011;59609;52.430;4.668;2022-09-12T06:25:58;31.50;;;17.35;;
71777;SDS011;59609;52.430;4.668;2022-09-12T06:28:24;31.20;;;16.77;;
71777;SDS011;59609;52.430;4.668;2022-09-12T06:30:49;30.90;;;17.88;;
71777;SDS011;59609;52.430;4.668;2022-09-12T06:33:15;32.08;;;16.55;;
71777;SDS011;59609;52.430;4.668;2022-09-12T06:35:40;32.53;;;16.10;;
71777;SDS011;59609;52.430;4.668;2022-09-12T06:38:06;33.80;;;17.95;;
71777;SDS011;59609;52.430;4.668;2022-09-12T06:40:31;36.08;;;17.42;;
71777;SDS011;59609;52.430;4.668;2022-09-12T06:42:57;31.55;;;17.73;;
71777;SDS011;59609;52.430;4.668;2022-09-12T06:45:23;31.83;;;18.05;;
71777;SDS011;59609;52.430;4.668;2022-09-12T06:47:49;33.22;;;17.48;;
71777;SDS011;59609;52.430;4.668;2022-09-12T06:50:15;35.60;;;19.17;;
71777;SDS011;59609;52.430;4.668;2022-09-12T06:52:40;29.75;;;16.90;;
71777;SDS011;59609;52.430;4.668;2022-09-12T06:55:06;31.02;;;18.13;;
71777;SDS011;59609;52.430;4.668;2022-09-12T06:57:31;35.22;;;18.25;;
71777;SDS011;59609;52.430;4.668;2022-09-12T07:00:01;33.00;;;17.10;;
71777;SDS011;59609;52.430;4.668;2022-09-12T07:02:28;31.45;;;17.23;;
71777;SDS011;59609;52.430;4.668;2022-09-12T07:04:53;26.20;;;16.50;;
71777;SDS011;59609;52.430;4.668;2022-09-12T07:07:19;32.45;;;15.77;;
71777;SDS011;59609;52.430;4.668;2022-09-12T07:09:44;30.90;;;16.63;;
71777;SDS011;59609;52.430;4.668;2022-09-12T07:12:09;31.17;;;18.27;;
71777;SDS011;59609;52.430;4.668;2022-09-12T07:14:35;28.65;;;17.08;;
71777;SDS011;59609;52.430;4.668;2022-09-12T07:17:00;27.90;;;17.63;;
71777;SDS011;59609;52.430;4.668;2022-09-12T07:19:25;33.88;;;17.23;;
71777;SDS011;59609;52.430;4.668;2022-09-12T07:21:51;29.98;;;15.45;;
71777;SDS011;59609;52.430;4.668;2022-09-12T07:24:16;31.25;;;17.50;;
71777;SDS011;59609;52.430;4.668;2022-09-12T07:26:41;28.50;;;16.55;;
71777;SDS011;59609;52.430;4.668;2022-09-12T07:29:11;27.95;;;16.27;;
71777;SDS011;59609;52.430;4.668;2022-09-12T07:31:40;27.75;;;17.08;;
71777;SDS011;59609;52.430;4.668;2022-09-12T07:34:05;28.27;;;16.98;;
71777;SDS011;59609;52.430;4.668;2022-09-12T07:36:30;26.38;;;16.30;;
71777;SDS011;59609;52.430;4.668;2022-09-12T07:38:56;29.38;;;15.38;;
71777;SDS011;59609;52.430;4.668;2022-09-12T07:41:26;26.40;;;15.98;;
71777;SDS011;59609;52.430;4.668;2022-09-12T07:43:54;27.48;;;15.80;;
71777;SDS011;59609;52.430;4.668;2022-09-12T07:46:21;27.77;;;15.75;;
71777;SDS011;59609;52.430;4.668;2022-09-12T07:48:48;26.02;;;15.25;;
71777;SDS011;59609;52.430;4.668;2022-09-12T07:51:15;24.02;;;15.38;;
71777;SDS011;59609;52.430;4.668;2022-09-12T07:53:41;24.88;;;14.55;;
71777;SDS011;59609;52.430;4.668;2022-09-12T07:56:07;25.60;;;15.38;;
71777;SDS011;59609;52.430;4.668;2022-09-12T07:58:34;28.85;;;15.73;;
71777;SDS011;59609;52.430;4.668;2022-09-12T08:03:31;28.50;;;14.13;;
71777;SDS011;59609;52.430;4.668;2022-09-12T08:06:06;23.92;;;14.02;;
71777;SDS011;59609;52.430;4.668;2022-09-12T08:08:36;21.13;;;13.00;;
71777;SDS011;59609;52.430;4.668;2022-09-12T08:11:04;23.75;;;13.30;;
71777;SDS011;59609;52.430;4.668;2022-09-12T08:13:32;19.13;;;12.50;;
71777;SDS011;59609;52.430;4.668;2022-09-12T08:18:26;16.63;;;10.43;;
71777;SDS011;59609;52.430;4.668;2022-09-12T08:20:59;20.13;;;12.20;;
71777;SDS011;59609;52.430;4.668;2022-09-12T08:23:26;18.88;;;11.57;;
71777;SDS011;59609;52.430;4.668;2022-09-12T08:25:59;16.67;;;11.32;;
71777;SDS011;59609;52.430;4.668;2022-09-12T08:28:27;17.90;;;12.77;;
71777;SDS011;59609;52.430;4.668;2022-09-12T08:30:53;20.83;;;12.20;;
71777;SDS011;59609;52.430;4.668;2022-09-12T08:33:19;17.10;;;12.07;;
71777;SDS011;59609;52.430;4.668;2022-09-12T08:35:44;18.95;;;12.10;;
71777;SDS011;59609;52.430;4.668;2022-09-12T08:38:11;18.05;;;10.77;;
71777;SDS011;59609;52.430;4.668;2022-09-12T08:40:42;18.98;;;12.30;;
71777;SDS011;59609;52.430;4.668;2022-09-12T08:46:12;19.65;;;11.32;;
71777;SDS011;59609;52.430;4.668;2022-09-12T08:48:45;19.08;;;12.57;;
71777;SDS011;59609;52.430;4.668;2022-09-12T08:51:11;17.15;;;11.15;;
71777;SDS011;59609;52.430;4.668;2022-09-12T08:56:05;17.67;;;12.05;;
71777;SDS011;59609;52.430;4.668;2022-09-12T08:58:38;16.85;;;11.75;;
71777;SDS011;59609;52.430;4.668;2022-09-12T09:17:52;11.70;;;8.00;;
71777;SDS011;59609;52.430;4.668;2022-09-12T09:23:13;17.13;;;10.82;;
71777;SDS011;59609;52.430;4.668;2022-09-12T09:30:47;13.23;;;8.45;;
71777;SDS011;59609;52.430;4.668;2022-09-12T09:33:23;14.70;;;9.73;;
71777;SDS011;59609;52.430;4.668;2022-09-12T09:39:07;12.02;;;8.80;;
71777;SDS011;59609;52.430;4.668;2022-09-12T09:44:31;13.88;;;9.00;;
71777;SDS011;59609;52.430;4.668;2022-09-12T09:46:57;14.30;;;9.75;;
71777;SDS011;59609;52.430;4.668;2022-09-12T09:49:24;14.30;;;9.18;;
71777;SDS011;59609;52.430;4.668;2022-09-12T09:51:52;14.55;;;9.95;;
71777;SDS011;59609;52.430;4.668;2022-09-12T09:54:30;14.32;;;9.75;;
71777;SDS011;59609;52.430;4.668;2022-09-12T09:57:01;14.50;;;9.18;;
71777;SDS011;59609;52.430;4.668;2022-09-12T09:59:28;12.55;;;8.68;;
71777;SDS011;59609;52.430;4.668;2022-09-12T10:04:39;10.90;;;8.35;;
71777;SDS011;59609;52.430;4.668;2022-09-12T10:07:05;12.63;;;9.30;;
71777;SDS011;59609;52.430;4.668;2022-09-12T10:09:44;10.35;;;7.20;;
71777;SDS011;59609;52.430;4.668;2022-09-12T10:12:29;12.90;;;8.30;;
71777;SDS011;59609;52.430;4.668;2022-09-12T10:14:56;14.07;;;7.82;;
71777;SDS011;59609;52.430;4.668;2022-09-12T10:17:31;11.60;;;8.23;;
71777;SDS011;59609;52.430;4.668;2022-09-12T10:20:26;11.23;;;8.07;;
71777;SDS011;59609;52.430;4.668;2022-09-12T10:23:20;12.32;;;7.97;;
71777;SDS011;59609;52.430;4.668;2022-09-12T10:25:55;15.35;;;8.20;;
71777;SDS011;59609;52.430;4.668;2022-09-12T10:28:34;12.35;;;8.38;;
71777;SDS011;59609;52.430;4.668;2022-09-12T10:31:05;10.65;;;8.48;;
71777;SDS011;59609;52.430;4.668;2022-09-12T10:33:43;13.68;;;9.00;;
71777;SDS011;59609;52.430;4.668;2022-09-12T10:36:17;14.30;;;9.20;;
71777;SDS011;59609;52.430;4.668;2022-09-12T10:38:50;13.43;;;8.18;;
71777;SDS011;59609;52.430;4.668;2022-09-12T10:41:18;11.48;;;6.55;;
71777;SDS011;59609;52.430;4.668;2022-09-12T10:43:45;10.75;;;6.90;;
71777;SDS011;59609;52.430;4.668;2022-09-12T10:48:40;9.70;;;6.18;;
71777;SDS011;59609;52.430;4.668;2022-09-12T10:51:11;9.15;;;6.07;;
71777;SDS011;59609;52.430;4.668;2022-09-12T10:53:51;7.97;;;6.03;;
71777;SDS011;59609;52.430;4.668;2022-09-12T11:01:40;6.43;;;5.75;;
71777;SDS011;59609;52.430;4.668;2022-09-12T11:10:02;6.88;;;5.50;;
71777;SDS011;59609;52.430;4.668;2022-09-12T11:21:00;8.48;;;5.25;;
71777;SDS011;59609;52.430;4.668;2022-09-12T11:23:56;9.30;;;6.18;;
71777;SDS011;59609;52.430;4.668;2022-09-12T11:37:33;8.50;;;6.47;;
71777;SDS011;59609;52.430;4.668;2022-09-12T11:42:53;8.70;;;5.68;;
71777;SDS011;59609;52.430;4.668;2022-09-12T11:45:34;5.90;;;4.97;;
71777;SDS011;59609;52.430;4.668;2022-09-12T11:48:06;7.97;;;5.82;;
71777;SDS011;59609;52.430;4.668;2022-09-12T11:50:36;5.97;;;4.45;;
71777;SDS011;59609;52.430;4.668;2022-09-12T11:53:04;4.50;;;4.07;;
71777;SDS011;59609;52.430;4.668;2022-09-12T11:58:19;11.60;;;7.25;;
71777;SDS011;59609;52.430;4.668;2022-09-12T12:00:49;14.57;;;8.95;;
71777;SDS011;59609;52.430;4.668;2022-09-12T12:06:45;10.40;;;7.15;;
71777;SDS011;59609;52.430;4.668;2022-09-12T12:08:45;7.18;;;5.43;;
71777;SDS011;59609;52.430;4.668;2022-09-12T12:11:13;6.65;;;5.03;;
71777;SDS011;59609;52.430;4.668;2022-09-12T12:13:50;10.38;;;6.45;;
71777;SDS011;59609;52.430;4.668;2022-09-12T12:16:22;6.28;;;4.50;;
71777;SDS011;59609;52.430;4.668;2022-09-12T12:19:00;8.05;;;6.25;;
71777;SDS011;59609;52.430;4.668;2022-09-12T12:21:48;7.85;;;5.28;;
71777;SDS011;59609;52.430;4.668;2022-09-12T12:24:21;6.38;;;5.28;;
71777;SDS011;59609;52.430;4.668;2022-09-12T12:34:35;7.22;;;5.00;;
71777;SDS011;59609;52.430;4.668;2022-09-12T12:42:09;3.95;;;3.55;;
71777;SDS011;59609;52.430;4.668;2022-09-12T12:47:17;2.85;;;2.65;;
71777;SDS011;59609;52.430;4.668;2022-09-12T12:49:52;3.72;;;2.88;;
71777;SDS011;59609;52.430;4.668;2022-09-12T12:52:21;3.83;;;2.88;;
71777;SDS011;59609;52.430;4.668;2022-09-12T12:54:50;2.65;;;2.45;;
71777;SDS011;59609;52.430;4.668;2022-09-12T12:57:25;5.00;;;3.60;;
71777;SDS011;59609;52.430;4.668;2022-09-12T13:02:24;3.33;;;2.87;;
71777;SDS011;59609;52.430;4.668;2022-09-12T13:04:55;4.75;;;3.00;;
71777;SDS011;59609;52.430;4.668;2022-09-12T13:07:40;3.33;;;3.03;;
71777;SDS011;59609;52.430;4.668;2022-09-12T13:10:19;3.20;;;2.90;;
71777;SDS011;59609;52.430;4.668;2022-09-12T13:12:50;3.25;;;2.88;;
71777;SDS011;59609;52.430;4.668;2022-09-12T13:18:01;4.05;;;3.65;;
71777;SDS011;59609;52.430;4.668;2022-09-12T13:20:32;9.13;;;4.63;;
71777;SDS011;59609;52.430;4.668;2022-09-12T13:23:02;5.38;;;4.15;;
71777;SDS011;59609;52.430;4.668;2022-09-12T13:25:32;5.13;;;3.63;;
71777;SDS011;59609;52.430;4.668;2022-09-12T13:30:31;3.92;;;3.40;;
71777;SDS011;59609;52.430;4.668;2022-09-12T13:33:02;7.28;;;4.50;;
71777;SDS011;59609;52.430;4.668;2022-09-12T13:35:56;4.90;;;2.97;;
71777;SDS011;59609;52.430;4.668;2022-09-12T13:43:40;4.38;;;3.97;;
71777;SDS011;59609;52.430;4.668;2022-09-12T13:46:08;3.53;;;3.20;;
71777;SDS011;59609;52.430;4.668;2022-09-12T13:48:37;2.78;;;2.55;;
71777;SDS011;59609;52.430;4.668;2022-09-12T13:51:03;4.55;;;2.72;;
71777;SDS011;59609;52.430;4.668;2022-09-12T13:53:40;3.03;;;2.75;;
71777;SDS011;59609;52.430;4.668;2022-09-12T13:56:08;3.65;;;2.33;;
71777;SDS011;59609;52.430;4.668;2022-09-12T13:58:49;2.97;;;2.42;;
71777;SDS011;59609;52.430;4.668;2022-09-12T14:01:21;2.92;;;2.63;;
71777;SDS011;59609;52.430;4.668;2022-09-12T14:04:01;6.30;;;2.97;;
71777;SDS011;59609;52.430;4.668;2022-09-12T14:06:58;3.58;;;2.47;;
71777;SDS011;59609;52.430;4.668;2022-09-12T14:09:33;6.07;;;3.45;;
71777;SDS011;59609;52.430;4.668;2022-09-12T14:12:03;3.08;;;2.78;;
71777;SDS011;59609;52.430;4.668;2022-09-12T14:14:37;2.80;;;2.58;;
71777;SDS011;59609;52.430;4.668;2022-09-12T14:17:17;4.05;;;3.30;;
71777;SDS011;59609;52.430;4.668;2022-09-12T14:19:48;3.22;;;2.75;;
71777;SDS011;59609;52.430;4.668;2022-09-12T14:22:13;3.63;;;2.53;;
71777;SDS011;59609;52.430;4.668;2022-09-12T14:24:41;2.92;;;2.63;;
71777;SDS011;59609;52.430;4.668;2022-09-12T14:27:17;4.13;;;2.67;;
71777;SDS011;59609;52.430;4.668;2022-09-12T14:29:48;5.40;;;2.40;;
71777;SDS011;59609;52.430;4.668;2022-09-12T14:32:21;2.85;;;2.60;;
71777;SDS011;59609;52.430;4.668;2022-09-12T14:35:12;5.18;;;2.58;;
71777;SDS011;59609;52.430;4.668;2022-09-12T14:37:42;3.35;;;3.05;;
71777;SDS011;59609;52.430;4.668;2022-09-12T14:40:20;4.35;;;2.53;;
71777;SDS011;59609;52.430;4.668;2022-09-12T14:42:47;5.15;;;2.78;;
71777;SDS011;59609;52.430;4.668;2022-09-12T14:45:22;4.28;;;2.85;;
71777;SDS011;59609;52.430;4.668;2022-09-12T14:47:57;3.70;;;2.75;;
71777;SDS011;59609;52.430;4.668;2022-09-12T14:55:32;4.05;;;2.83;;
71777;SDS011;59609;52.430;4.668;2022-09-12T14:58:32;4.43;;;3.03;;
71777;SDS011;59609;52.430;4.668;2022-09-12T15:03:21;3.60;;;3.17;;
71777;SDS011;59609;52.430;4.668;2022-09-12T15:05:49;7.28;;;2.63;;
71777;SDS011;59609;52.430;4.668;2022-09-12T15:08:15;4.85;;;2.80;;
71777;SDS011;59609;52.430;4.668;2022-09-12T15:10:40;7.55;;;3.13;;
71777;SDS011;59609;52.430;4.668;2022-09-12T15:15:35;3.85;;;2.90;;
71777;SDS011;59609;52.430;4.668;2022-09-12T15:18:01;3.70;;;2.65;;
71777;SDS011;59609;52.430;4.668;2022-09-12T15:20:27;4.88;;;3.42;;
71777;SDS011;59609;52.430;4.668;2022-09-12T15:22:52;3.85;;;3.47;;
71777;SDS011;59609;52.430;4.668;2022-09-12T15:25:18;3.90;;;2.55;;
71777;SDS011;59609;52.430;4.668;2022-09-12T15:27:44;4.97;;;3.15;;
71777;SDS011;59609;52.430;4.668;2022-09-12T15:30:10;4.13;;;2.92;;
71777;SDS011;59609;52.430;4.668;2022-09-12T15:32:37;4.95;;;2.85;;
71777;SDS011;59609;52.430;4.668;2022-09-12T15:35:22;4.45;;;2.80;;
71777;SDS011;59609;52.430;4.668;2022-09-12T15:37:49;5.47;;;3.05;;
71777;SDS011;59609;52.430;4.668;2022-09-12T15:40:14;5.53;;;3.38;;
71777;SDS011;59609;52.430;4.668;2022-09-12T15:42:40;4.22;;;3.22;;
71777;SDS011;59609;52.430;4.668;2022-09-12T15:45:19;3.83;;;2.90;;
71777;SDS011;59609;52.430;4.668;2022-09-12T15:47:47;6.38;;;3.55;;
71777;SDS011;59609;52.430;4.668;2022-09-12T15:50:13;5.20;;;3.13;;
71777;SDS011;59609;52.430;4.668;2022-09-12T15:52:38;3.95;;;3.08;;
71777;SDS011;59609;52.430;4.668;2022-09-12T15:55:04;3.78;;;2.72;;
71777;SDS011;59609;52.430;4.668;2022-09-12T15:57:34;4.50;;;2.80;;
71777;SDS011;59609;52.430;4.668;2022-09-12T15:59:59;4.72;;;2.70;;
71777;SDS011;59609;52.430;4.668;2022-09-12T16:02:24;4.28;;;3.08;;
71777;SDS011;59609;52.430;4.668;2022-09-12T16:04:50;5.10;;;2.88;;
71777;SDS011;59609;52.430;4.668;2022-09-12T16:07:18;4.53;;;2.90;;
71777;SDS011;59609;52.430;4.668;2022-09-12T16:09:43;3.50;;;3.10;;
71777;SDS011;59609;52.430;4.668;2022-09-12T16:12:10;6.30;;;3.08;;
71777;SDS011;59609;52.430;4.668;2022-09-12T16:14:35;3.50;;;3.20;;
71777;SDS011;59609;52.430;4.668;2022-09-12T16:17:00;3.22;;;2.92;;
71777;SDS011;59609;52.430;4.668;2022-09-12T16:19:26;6.32;;;3.25;;
71777;SDS011;59609;52.430;4.668;2022-09-12T16:21:51;4.05;;;3.03;;
71777;SDS011;59609;52.430;4.668;2022-09-12T16:24:17;3.40;;;3.08;;
71777;SDS011;59609;52.430;4.668;2022-09-12T16:26:42;3.70;;;2.95;;
71777;SDS011;59609;52.430;4.668;2022-09-12T16:29:07;3.67;;;3.20;;
71777;SDS011;59609;52.430;4.668;2022-09-12T16:31:34;3.38;;;3.05;;
71777;SDS011;59609;52.430;4.668;2022-09-12T16:34:02;6.03;;;3.15;;
71777;SDS011;59609;52.430;4.668;2022-09-12T16:36:27;3.25;;;2.88;;
71777;SDS011;59609;52.430;4.668;2022-09-12T16:38:53;4.00;;;3.60;;
71777;SDS011;59609;52.430;4.668;2022-09-12T16:41:19;4.55;;;3.08;;
71777;SDS011;59609;52.430;4.668;2022-09-12T16:43:46;3.47;;;3.17;;
71777;SDS011;59609;52.430;4.668;2022-09-12T16:46:13;5.32;;;3.38;;
71777;SDS011;59609;52.430;4.668;2022-09-12T16:48:43;5.18;;;3.13;;
71777;SDS011;59609;52.430;4.668;2022-09-12T16:51:12;4.15;;;3.50;;
71777;SDS011;59609;52.430;4.668;2022-09-12T16:53:37;4.70;;;3.05;;
71777;SDS011;59609;52.430;4.668;2022-09-12T16:56:03;4.20;;;3.20;;
71777;SDS011;59609;52.430;4.668;2022-09-12T16:58:33;4.85;;;3.65;;
71777;SDS011;59609;52.430;4.668;2022-09-12T17:03:28;4.68;;;3.20;;
71777;SDS011;59609;52.430;4.668;2022-09-12T17:06:01;3.53;;;3.08;;
71777;SDS011;59609;52.430;4.668;2022-09-12T17:08:34;4.57;;;3.33;;
71777;SDS011;59609;52.430;4.668;2022-09-12T17:11:03;5.45;;;3.33;;
71777;SDS011;59609;52.430;4.668;2022-09-12T17:13:30;7.57;;;3.22;;
71777;SDS011;59609;52.430;4.668;2022-09-12T17:15:55;4.03;;;3.40;;
71777;SDS011;59609;52.430;4.668;2022-09-12T17:18:21;3.58;;;3.28;;
71777;SDS011;59609;52.430;4.668;2022-09-12T17:20:47;4.25;;;3.85;;
71777;SDS011;59609;52.430;4.668;2022-09-12T17:23:13;4.55;;;3.78;;
71777;SDS011;59609;52.430;4.668;2022-09-12T17:25:38;5.88;;;3.22;;
71777;SDS011;59609;52.430;4.668;2022-09-12T17:28:03;5.32;;;3.20;;
71777;SDS011;59609;52.430;4.668;2022-09-12T17:30:33;5.07;;;3.25;;
71777;SDS011;59609;52.430;4.668;2022-09-12T17:32:59;8.82;;;3.65;;
71777;SDS011;59609;52.430;4.668;2022-09-12T17:35:24;6.03;;;4.03;;
71777;SDS011;59609;52.430;4.668;2022-09-12T17:37:50;6.22;;;4.13;;
71777;SDS011;59609;52.430;4.668;2022-09-12T17:40:15;8.00;;;3.72;;
71777;SDS011;59609;52.430;4.668;2022-09-12T17:42:41;5.18;;;3.50;;
71777;SDS011;59609;52.430;4.668;2022-09-12T17:45:07;6.57;;;3.72;;
71777;SDS011;59609;52.430;4.668;2022-09-12T17:47:33;5.15;;;4.10;;
71777;SDS011;59609;52.430;4.668;2022-09-12T17:49:58;5.47;;;4.13;;